Time;durP1;ratioP1;P1;durP2;ratioP2;P2;SDS_P1;SDS_P2;PMS_P1;PMS_P2;Temp;Humidity;BMP_temperature;BMP_pressure;BME280_temperature;BME280_humidity;BME280_pressure;Samples;Min_cycle;Max_cycle;Signal;HPM_P1;HPM_P2
2023/07/27 00:00:14;;;;;;;8.60;3.15;;;;;;;;;;4968550;28;20047;-59
2023/07/27 00:02:42;;;;;;;5.82;3.30;;;;;;;;;;4972131;28;20051;-58
2023/07/27 00:05:08;;;;;;;4.93;3.15;;;;;;;;;;4970006;28;21906;-58
2023/07/27 00:07:34;;;;;;;5.88;3.33;;;;;;;;;;4971232;28;20030;-58
2023/07/27 00:10:00;;;;;;;4.55;3.05;;;;;;;;;;4969445;28;20043;-59
2023/07/27 00:12:26;;;;;;;5.25;3.15;;;;;;;;;;4967692;28;20069;-60
2023/07/27 00:14:53;;;;;;;5.80;3.45;;;;;;;;;;4966350;28;20050;-58
2023/07/27 00:17:19;;;;;;;7.45;3.60;;;;;;;;;;4963092;28;20398;-58
2023/07/27 00:19:45;;;;;;;8.35;3.10;;;;;;;;;;4965516;28;20046;-59
2023/07/27 00:22:11;;;;;;;3.65;2.97;;;;;;;;;;4967433;28;20459;-60
2023/07/27 00:24:37;;;;;;;5.93;3.08;;;;;;;;;;4966170;28;20055;-60
2023/07/27 00:27:03;;;;;;;5.10;2.92;;;;;;;;;;4970066;28;20079;-60
2023/07/27 00:29:29;;;;;;;5.70;2.80;;;;;;;;;;4964167;28;20042;-60
2023/07/27 00:31:55;;;;;;;5.30;3.28;;;;;;;;;;4967985;28;20043;-60
2023/07/27 00:34:22;;;;;;;7.65;3.20;;;;;;;;;;4970809;28;20050;-60
2023/07/27 00:36:50;;;;;;;4.18;2.88;;;;;;;;;;4971123;28;20070;-60
2023/07/27 00:39:16;;;;;;;5.10;3.03;;;;;;;;;;4968418;28;20038;-60
2023/07/27 00:41:43;;;;;;;5.05;2.95;;;;;;;;;;4968425;28;20042;-60
2023/07/27 00:44:10;;;;;;;5.40;3.25;;;;;;;;;;4970461;28;20031;-60
2023/07/27 00:46:37;;;;;;;5.25;3.20;;;;;;;;;;4965728;28;20062;-60
2023/07/27 00:49:06;;;;;;;4.88;2.83;;;;;;;;;;4969431;28;20107;-60
2023/07/27 00:51:40;;;;;;;5.47;3.22;;;;;;;;;;4968916;28;20054;-60
2023/07/27 00:54:08;;;;;;;7.60;3.15;;;;;;;;;;4969066;28;20050;-60
2023/07/27 00:56:37;;;;;;;4.43;2.93;;;;;;;;;;4971427;28;20598;-60
2023/07/27 00:59:04;;;;;;;5.40;3.00;;;;;;;;;;4966325;28;20126;-60
2023/07/27 01:01:32;;;;;;;7.95;3.00;;;;;;;;;;4963456;28;20051;-60
2023/07/27 01:03:59;;;;;;;6.35;3.20;;;;;;;;;;4951131;28;20037;-60
2023/07/27 01:06:25;;;;;;;8.38;3.60;;;;;;;;;;4967146;28;20030;-60
2023/07/27 01:08:52;;;;;;;6.32;3.30;;;;;;;;;;4968042;28;20039;-60
2023/07/27 01:11:22;;;;;;;5.78;3.20;;;;;;;;;;4965565;28;20046;-60
2023/07/27 01:14:04;;;;;;;6.57;3.20;;;;;;;;;;4964988;28;20043;-60
2023/07/27 01:17:25;;;;;;;7.72;3.20;;;;;;;;;;4964926;28;20053;-60
2023/07/27 01:20:19;;;;;;;6.85;3.05;;;;;;;;;;4890836;29;20047;-60
2023/07/27 01:22:45;;;;;;;4.78;2.97;;;;;;;;;;4964011;28;20058;-60
2023/07/27 01:25:46;;;;;;;5.93;3.00;;;;;;;;;;4968597;28;20414;-60
2023/07/27 01:28:40;;;;;;;5.30;3.03;;;;;;;;;;4964040;28;20039;-60
2023/07/27 01:31:09;;;;;;;6.30;2.88;;;;;;;;;;4971152;28;20051;-60
2023/07/27 01:33:41;;;;;;;9.75;3.17;;;;;;;;;;4966555;28;20049;-60
2023/07/27 01:36:10;;;;;;;6.00;3.08;;;;;;;;;;4970679;28;20053;-60
2023/07/27 01:38:41;;;;;;;5.97;3.30;;;;;;;;;;4965560;28;20054;-60
2023/07/27 01:41:09;;;;;;;6.72;3.30;;;;;;;;;;4972919;28;20038;-60
2023/07/27 01:43:36;;;;;;;5.72;3.33;;;;;;;;;;4967428;28;20081;-60
2023/07/27 01:46:05;;;;;;;7.15;3.70;;;;;;;;;;4966717;28;20043;-60
2023/07/27 01:48:32;;;;;;;6.93;3.57;;;;;;;;;;4966234;28;20031;-60
2023/07/27 01:50:59;;;;;;;6.53;4.00;;;;;;;;;;4967931;28;20042;-60
2023/07/27 01:53:28;;;;;;;8.18;3.42;;;;;;;;;;4966932;28;20026;-60
2023/07/27 01:55:55;;;;;;;7.25;2.88;;;;;;;;;;4968946;28;20043;-60
2023/07/27 01:58:23;;;;;;;4.72;3.08;;;;;;;;;;4964182;28;20122;-60
2023/07/27 02:00:50;;;;;;;5.30;3.30;;;;;;;;;;4969898;28;20452;-60
2023/07/27 02:03:18;;;;;;;6.28;3.25;;;;;;;;;;4965723;28;20615;-60
2023/07/27 02:05:44;;;;;;;4.38;3.05;;;;;;;;;;4971138;28;20055;-60
2023/07/27 02:08:10;;;;;;;5.47;3.03;;;;;;;;;;4968197;28;20051;-60
2023/07/27 02:10:39;;;;;;;4.70;2.88;;;;;;;;;;4966439;28;20035;-60
2023/07/27 02:13:11;;;;;;;5.97;3.47;;;;;;;;;;4965371;28;20038;-60
2023/07/27 02:15:42;;;;;;;5.07;3.30;;;;;;;;;;4965582;28;20030;-60
2023/07/27 02:18:15;;;;;;;5.25;2.95;;;;;;;;;;4966398;28;20054;-59
2023/07/27 02:20:42;;;;;;;5.88;3.42;;;;;;;;;;4969159;28;20054;-60
2023/07/27 02:23:10;;;;;;;5.40;3.25;;;;;;;;;;4964832;28;20035;-60
2023/07/27 02:25:36;;;;;;;7.72;3.10;;;;;;;;;;4966360;28;20055;-60
2023/07/27 02:28:02;;;;;;;4.75;3.03;;;;;;;;;;4970479;28;20058;-60
2023/07/27 02:30:28;;;;;;;5.88;2.92;;;;;;;;;;4968815;28;20060;-60
2023/07/27 02:32:54;;;;;;;8.50;3.20;;;;;;;;;;4968143;28;20030;-60
2023/07/27 02:35:21;;;;;;;5.40;3.22;;;;;;;;;;4969669;28;20038;-60
2023/07/27 02:37:52;;;;;;;4.45;3.08;;;;;;;;;;4969021;28;20574;-60
2023/07/27 02:40:21;;;;;;;8.73;3.40;;;;;;;;;;4969033;28;20053;-59
2023/07/27 02:42:48;;;;;;;5.90;3.25;;;;;;;;;;4966895;28;20059;-60
2023/07/27 02:45:14;;;;;;;5.10;2.72;;;;;;;;;;4968102;28;20043;-60
2023/07/27 02:47:40;;;;;;;7.03;3.60;;;;;;;;;;4968497;28;20066;-60
2023/07/27 02:50:07;;;;;;;5.32;3.10;;;;;;;;;;4969294;28;20043;-60
2023/07/27 02:52:44;;;;;;;5.05;3.15;;;;;;;;;;4966772;28;20050;-59
2023/07/27 02:55:11;;;;;;;6.43;2.97;;;;;;;;;;4974698;28;20047;-60
2023/07/27 02:57:37;;;;;;;5.88;3.25;;;;;;;;;;4969409;28;20034;-59
2023/07/27 03:00:05;;;;;;;4.50;2.92;;;;;;;;;;4968992;28;20042;-59
2023/07/27 03:02:32;;;;;;;6.03;3.30;;;;;;;;;;4965021;28;20174;-60
2023/07/27 03:05:04;;;;;;;4.65;3.08;;;;;;;;;;4969103;28;20031;-60
2023/07/27 03:07:30;;;;;;;5.60;3.20;;;;;;;;;;4971042;28;20050;-59
2023/07/27 03:09:56;;;;;;;7.18;3.63;;;;;;;;;;4970051;28;20577;-60
2023/07/27 03:12:22;;;;;;;6.07;3.35;;;;;;;;;;4964882;28;20038;-60
2023/07/27 03:14:49;;;;;;;5.78;3.63;;;;;;;;;;4966355;28;20034;-59
2023/07/27 03:17:15;;;;;;;6.35;3.65;;;;;;;;;;4964862;28;20046;-59
2023/07/27 03:19:41;;;;;;;5.80;3.03;;;;;;;;;;4966443;28;20058;-60
2023/07/27 03:22:07;;;;;;;6.10;4.00;;;;;;;;;;4965829;28;20039;-60
2023/07/27 03:24:33;;;;;;;5.65;3.67;;;;;;;;;;4966358;28;20046;-60
2023/07/27 03:27:01;;;;;;;6.57;3.97;;;;;;;;;;4967249;28;20035;-59
2023/07/27 03:29:27;;;;;;;11.48;3.90;;;;;;;;;;4965809;28;20061;-59
2023/07/27 03:31:53;;;;;;;6.28;3.50;;;;;;;;;;4969107;28;20035;-59
2023/07/27 03:34:19;;;;;;;6.28;3.10;;;;;;;;;;4965001;28;20046;-59
2023/07/27 03:36:45;;;;;;;7.13;3.63;;;;;;;;;;4968084;28;20074;-60
2023/07/27 03:39:11;;;;;;;6.93;3.25;;;;;;;;;;4971320;28;20042;-60
2023/07/27 03:41:38;;;;;;;5.93;3.50;;;;;;;;;;4952142;28;20027;-59
2023/07/27 03:44:06;;;;;;;6.10;3.65;;;;;;;;;;4967689;28;20045;-59
2023/07/27 03:46:32;;;;;;;8.43;3.80;;;;;;;;;;4966816;28;23288;-59
2023/07/27 03:48:58;;;;;;;7.13;4.32;;;;;;;;;;4968697;28;20058;-59
2023/07/27 03:51:25;;;;;;;7.93;4.25;;;;;;;;;;4966166;28;20043;-59
2023/07/27 03:53:51;;;;;;;7.30;3.40;;;;;;;;;;4966992;28;20035;-59
2023/07/27 03:56:31;;;;;;;6.47;3.50;;;;;;;;;;4966813;28;20388;-59
2023/07/27 03:58:58;;;;;;;7.05;3.25;;;;;;;;;;4971597;28;20042;-59
2023/07/27 04:01:24;;;;;;;4.88;3.15;;;;;;;;;;4970940;28;20074;-60
2023/07/27 04:03:50;;;;;;;9.02;3.70;;;;;;;;;;4971251;28;20026;-60
2023/07/27 04:06:16;;;;;;;7.43;3.80;;;;;;;;;;4971690;28;20050;-59
2023/07/27 04:08:42;;;;;;;6.55;4.38;;;;;;;;;;4970724;28;20414;-60
2023/07/27 04:11:08;;;;;;;6.28;3.80;;;;;;;;;;4973609;28;20050;-59
2023/07/27 04:13:34;;;;;;;7.30;3.45;;;;;;;;;;4968767;28;20034;-60
2023/07/27 04:16:00;;;;;;;5.50;3.30;;;;;;;;;;4972941;28;20050;-60
2023/07/27 04:18:26;;;;;;;6.35;3.25;;;;;;;;;;4967122;28;20046;-59
2023/07/27 04:20:52;;;;;;;6.45;3.42;;;;;;;;;;4969602;28;20059;-59
2023/07/27 04:23:19;;;;;;;7.88;3.28;;;;;;;;;;4966197;28;20049;-59
2023/07/27 04:25:45;;;;;;;6.78;3.28;;;;;;;;;;4965896;28;20054;-59
2023/07/27 04:28:11;;;;;;;5.93;3.40;;;;;;;;;;4968479;28;20398;-59
2023/07/27 04:30:37;;;;;;;6.45;3.60;;;;;;;;;;4965249;28;20054;-59
2023/07/27 04:33:03;;;;;;;7.95;3.78;;;;;;;;;;4966998;28;20046;-58
2023/07/27 04:35:29;;;;;;;7.53;3.35;;;;;;;;;;4970084;28;20034;-57
2023/07/27 04:37:55;;;;;;;5.75;3.08;;;;;;;;;;4969033;28;20027;-60
2023/07/27 04:40:22;;;;;;;7.10;3.42;;;;;;;;;;4965437;28;20039;-60
2023/07/27 04:42:48;;;;;;;5.72;3.53;;;;;;;;;;4969422;28;20042;-60
2023/07/27 04:45:14;;;;;;;5.45;3.15;;;;;;;;;;4964132;28;20051;-60
2023/07/27 04:47:40;;;;;;;7.85;3.53;;;;;;;;;;4967536;28;20046;-60
2023/07/27 04:50:06;;;;;;;5.25;3.33;;;;;;;;;;4974970;28;20034;-59
2023/07/27 04:52:32;;;;;;;4.97;3.30;;;;;;;;;;4955402;28;20276;-60
2023/07/27 04:54:59;;;;;;;5.53;3.40;;;;;;;;;;4974175;28;20046;-59
2023/07/27 04:57:25;;;;;;;5.78;3.22;;;;;;;;;;4973130;28;20395;-60
2023/07/27 04:59:51;;;;;;;5.63;3.35;;;;;;;;;;4970407;28;20077;-60
2023/07/27 05:02:17;;;;;;;8.40;3.30;;;;;;;;;;4967962;28;20047;-60
2023/07/27 05:04:43;;;;;;;6.22;3.38;;;;;;;;;;4969312;28;20038;-60
2023/07/27 05:07:09;;;;;;;5.50;3.35;;;;;;;;;;4971905;28;20153;-60
2023/07/27 05:09:35;;;;;;;5.63;3.40;;;;;;;;;;4967236;28;20422;-60
2023/07/27 05:12:01;;;;;;;8.38;3.45;;;;;;;;;;4967978;28;20045;-59
2023/07/27 05:14:27;;;;;;;7.40;3.60;;;;;;;;;;4967229;28;20069;-60
2023/07/27 05:16:53;;;;;;;5.28;3.00;;;;;;;;;;4967370;28;20495;-60
2023/07/27 05:19:19;;;;;;;5.90;3.00;;;;;;;;;;4966388;28;20034;-60
2023/07/27 05:21:45;;;;;;;5.15;3.30;;;;;;;;;;4967632;28;20054;-60
2023/07/27 05:24:11;;;;;;;7.38;3.22;;;;;;;;;;4966667;28;20046;-60
2023/07/27 05:26:38;;;;;;;8.00;3.72;;;;;;;;;;4973202;28;20058;-60
2023/07/27 05:29:04;;;;;;;7.25;3.50;;;;;;;;;;4969533;28;20031;-60
2023/07/27 05:31:30;;;;;;;5.57;3.10;;;;;;;;;;4974728;28;20065;-60
2023/07/27 05:33:56;;;;;;;8.35;3.22;;;;;;;;;;4971314;28;20047;-60
2023/07/27 05:36:22;;;;;;;4.65;2.80;;;;;;;;;;4972007;28;20387;-60
2023/07/27 05:38:48;;;;;;;5.93;3.22;;;;;;;;;;4969098;28;20035;-60
2023/07/27 05:41:14;;;;;;;7.10;2.72;;;;;;;;;;4966820;28;20039;-60
2023/07/27 05:43:40;;;;;;;6.05;2.80;;;;;;;;;;4963467;28;20364;-60
2023/07/27 05:46:06;;;;;;;5.25;3.03;;;;;;;;;;4967964;28;20511;-58
2023/07/27 05:48:34;;;;;;;5.20;3.03;;;;;;;;;;4966295;28;20054;-58
2023/07/27 05:51:00;;;;;;;8.02;3.40;;;;;;;;;;4967480;28;20506;-59
2023/07/27 05:53:26;;;;;;;6.18;3.22;;;;;;;;;;4968872;28;20057;-59
2023/07/27 05:55:52;;;;;;;5.03;3.17;;;;;;;;;;4973104;28;20506;-58
2023/07/27 05:58:18;;;;;;;7.07;3.80;;;;;;;;;;4969213;28;20050;-59
2023/07/27 06:00:44;;;;;;;5.75;3.05;;;;;;;;;;4969088;28;20042;-58
2023/07/27 06:03:10;;;;;;;9.02;4.03;;;;;;;;;;4969961;28;20060;-59
2023/07/27 06:05:42;;;;;;;5.43;3.05;;;;;;;;;;4966639;28;20050;-59
2023/07/27 06:08:09;;;;;;;4.60;2.85;;;;;;;;;;4966253;28;20042;-59
2023/07/27 06:10:35;;;;;;;6.28;3.10;;;;;;;;;;4967653;28;20042;-59
2023/07/27 06:13:01;;;;;;;4.88;2.70;;;;;;;;;;4966700;28;20418;-59
2023/07/27 06:15:27;;;;;;;6.07;3.00;;;;;;;;;;4972535;28;20498;-59
2023/07/27 06:17:53;;;;;;;8.15;3.17;;;;;;;;;;4969925;28;20399;-59
2023/07/27 06:20:19;;;;;;;4.72;2.83;;;;;;;;;;4971410;28;20043;-59
2023/07/27 06:22:45;;;;;;;4.40;2.88;;;;;;;;;;4970623;28;20038;-58
2023/07/27 06:25:11;;;;;;;6.78;3.20;;;;;;;;;;4974878;28;20046;-58
2023/07/27 06:27:37;;;;;;;7.25;4.10;;;;;;;;;;4970695;28;20055;-59
2023/07/27 06:30:03;;;;;;;12.43;3.80;;;;;;;;;;4972768;28;20046;-58
2023/07/27 06:32:30;;;;;;;7.68;3.38;;;;;;;;;;4970669;28;20410;-59
2023/07/27 06:34:56;;;;;;;7.35;4.15;;;;;;;;;;4967177;28;20051;-60
2023/07/27 06:37:22;;;;;;;8.45;3.95;;;;;;;;;;4969309;28;20037;-60
2023/07/27 06:39:48;;;;;;;8.45;4.10;;;;;;;;;;4973040;28;20046;-60
2023/07/27 06:42:14;;;;;;;4.85;3.15;;;;;;;;;;4968052;28;20053;-60
2023/07/27 06:44:42;;;;;;;6.03;2.88;;;;;;;;;;4969728;28;20041;-60
2023/07/27 06:47:08;;;;;;;6.00;3.38;;;;;;;;;;4970331;28;20046;-60
2023/07/27 06:49:34;;;;;;;5.90;3.22;;;;;;;;;;4970073;28;20047;-60
2023/07/27 06:52:00;;;;;;;5.38;3.05;;;;;;;;;;4970623;28;20046;-60
2023/07/27 06:54:26;;;;;;;6.70;3.25;;;;;;;;;;4970668;28;20058;-60
2023/07/27 06:56:52;;;;;;;6.70;3.10;;;;;;;;;;4972387;28;20035;-60
2023/07/27 06:59:19;;;;;;;5.25;3.17;;;;;;;;;;4976188;28;20029;-60
2023/07/27 07:01:45;;;;;;;4.55;2.70;;;;;;;;;;4976398;28;20046;-60
2023/07/27 07:04:11;;;;;;;5.53;2.80;;;;;;;;;;4968421;28;20038;-60
2023/07/27 07:06:40;;;;;;;6.95;3.55;;;;;;;;;;4974110;28;20046;-60
2023/07/27 07:09:06;;;;;;;8.63;3.37;;;;;;;;;;4968738;28;20115;-60
2023/07/27 07:11:32;;;;;;;7.15;2.90;;;;;;;;;;4967222;28;21944;-60
2023/07/27 07:13:59;;;;;;;5.05;2.92;;;;;;;;;;4966543;28;20031;-60
2023/07/27 07:16:25;;;;;;;9.02;3.10;;;;;;;;;;4969175;28;20041;-59
2023/07/27 07:18:51;;;;;;;6.00;3.00;;;;;;;;;;4970570;28;20039;-60
2023/07/27 07:21:17;;;;;;;5.05;2.88;;;;;;;;;;4967491;28;20050;-60
2023/07/27 07:23:43;;;;;;;5.25;3.08;;;;;;;;;;4967596;28;20106;-59
2023/07/27 07:26:10;;;;;;;6.75;3.40;;;;;;;;;;4971744;28;20054;-60
2023/07/27 07:28:36;;;;;;;5.85;2.80;;;;;;;;;;4971298;28;20038;-60
2023/07/27 07:31:02;;;;;;;8.02;3.40;;;;;;;;;;4970509;28;20061;-59
2023/07/27 07:33:28;;;;;;;5.97;3.22;;;;;;;;;;4967526;28;20062;-60
2023/07/27 07:35:54;;;;;;;5.97;3.53;;;;;;;;;;4971130;28;20050;-60
2023/07/27 07:38:20;;;;;;;7.68;3.65;;;;;;;;;;4970746;28;20503;-60
2023/07/27 07:40:46;;;;;;;6.00;3.28;;;;;;;;;;4968849;28;20058;-60
2023/07/27 07:43:12;;;;;;;4.63;2.60;;;;;;;;;;4966691;28;20035;-60
2023/07/27 07:45:38;;;;;;;6.00;2.70;;;;;;;;;;4970191;28;20038;-60
2023/07/27 07:48:04;;;;;;;7.00;2.80;;;;;;;;;;4972169;28;20046;-60
2023/07/27 07:50:36;;;;;;;5.53;2.75;;;;;;;;;;4968450;28;20050;-60
2023/07/27 07:53:05;;;;;;;5.97;2.63;;;;;;;;;;4968617;28;20065;-60
2023/07/27 07:55:36;;;;;;;6.10;2.58;;;;;;;;;;4971404;28;20042;-60
2023/07/27 07:58:02;;;;;;;6.88;2.75;;;;;;;;;;4972852;28;20406;-61
2023/07/27 08:00:29;;;;;;;5.13;2.67;;;;;;;;;;4970895;28;20043;-60
2023/07/27 08:02:55;;;;;;;5.63;2.60;;;;;;;;;;4967745;28;20038;-61
2023/07/27 08:05:21;;;;;;;6.88;2.92;;;;;;;;;;4970402;28;20196;-61
2023/07/27 08:07:47;;;;;;;4.25;2.28;;;;;;;;;;4968433;28;20070;-62
2023/07/27 08:10:14;;;;;;;5.40;2.67;;;;;;;;;;4966694;28;20062;-60
2023/07/27 08:12:42;;;;;;;5.78;2.28;;;;;;;;;;4965946;28;20035;-60
2023/07/27 08:15:09;;;;;;;4.80;2.55;;;;;;;;;;4966803;28;20085;-60
2023/07/27 08:17:35;;;;;;;3.95;2.10;;;;;;;;;;4968108;28;20035;-60
2023/07/27 08:20:02;;;;;;;5.88;2.47;;;;;;;;;;4969793;28;20058;-60
2023/07/27 08:22:28;;;;;;;3.70;2.30;;;;;;;;;;4967247;28;20453;-61
2023/07/27 08:24:54;;;;;;;2.65;2.00;;;;;;;;;;4967458;28;20062;-61
2023/07/27 08:27:20;;;;;;;5.35;2.45;;;;;;;;;;4966831;28;20042;-60
2023/07/27 08:29:46;;;;;;;5.85;2.63;;;;;;;;;;4973437;28;20529;-60
2023/07/27 08:32:12;;;;;;;4.68;2.20;;;;;;;;;;4970140;28;20030;-60
2023/07/27 08:34:38;;;;;;;3.70;2.00;;;;;;;;;;4970952;28;20039;-59
2023/07/27 08:37:05;;;;;;;6.13;2.40;;;;;;;;;;4970805;28;20855;-60
2023/07/27 08:39:31;;;;;;;4.18;2.17;;;;;;;;;;4965728;28;20423;-60
2023/07/27 08:41:57;;;;;;;5.53;2.50;;;;;;;;;;4967681;28;20058;-59
2023/07/27 08:44:24;;;;;;;4.40;2.05;;;;;;;;;;4978597;28;20047;-60
2023/07/27 08:46:51;;;;;;;3.42;2.13;;;;;;;;;;4966879;28;20126;-60
2023/07/27 08:49:18;;;;;;;3.75;1.90;;;;;;;;;;4970787;28;20035;-60
2023/07/27 08:51:44;;;;;;;4.20;2.30;;;;;;;;;;4968939;28;20054;-60
2023/07/27 08:54:11;;;;;;;3.50;2.10;;;;;;;;;;4966971;28;20054;-60
2023/07/27 08:56:37;;;;;;;3.80;1.95;;;;;;;;;;4968628;28;20050;-60
2023/07/27 08:59:03;;;;;;;2.88;2.08;;;;;;;;;;4969824;28;20053;-60
2023/07/27 09:01:29;;;;;;;3.42;1.95;;;;;;;;;;4973039;28;20410;-60
2023/07/27 09:03:57;;;;;;;3.70;2.15;;;;;;;;;;4970217;28;20035;-60
2023/07/27 09:06:40;;;;;;;4.75;2.13;;;;;;;;;;4969295;28;20035;-61
2023/07/27 09:09:16;;;;;;;2.97;1.92;;;;;;;;;;4965552;28;20042;-60
2023/07/27 09:11:43;;;;;;;3.70;2.22;;;;;;;;;;4968215;28;20038;-61
2023/07/27 09:14:09;;;;;;;3.50;2.00;;;;;;;;;;4967794;28;20050;-60
2023/07/27 09:16:36;;;;;;;5.50;2.13;;;;;;;;;;4964778;28;20057;-60
2023/07/27 09:19:04;;;;;;;3.75;2.00;;;;;;;;;;4969123;28;20161;-60
2023/07/27 09:21:45;;;;;;;4.55;2.40;;;;;;;;;;4966715;28;20051;-60
2023/07/27 09:24:12;;;;;;;9.38;4.53;;;;;;;;;;4965769;28;20046;-61
2023/07/27 09:26:45;;;;;;;11.32;5.22;;;;;;;;;;4969958;28;20035;-61
2023/07/27 09:29:17;;;;;;;5.20;2.85;;;;;;;;;;4963988;28;20104;-60
2023/07/27 09:31:51;;;;;;;4.50;2.00;;;;;;;;;;4966473;28;20046;-60
2023/07/27 09:34:19;;;;;;;6.57;2.17;;;;;;;;;;4966393;28;20050;-59
2023/07/27 09:36:46;;;;;;;3.10;2.03;;;;;;;;;;4970334;28;20035;-61
2023/07/27 09:39:14;;;;;;;3.55;2.15;;;;;;;;;;4971668;28;20035;-61
2023/07/27 09:41:45;;;;;;;4.05;1.95;;;;;;;;;;4970569;28;20050;-60
2023/07/27 09:44:15;;;;;;;4.20;2.05;;;;;;;;;;4970555;28;20065;-60
2023/07/27 09:46:43;;;;;;;3.35;1.80;;;;;;;;;;4974134;28;20035;-60
2023/07/27 09:49:09;;;;;;;3.85;2.20;;;;;;;;;;4972727;28;20042;-60
2023/07/27 09:51:36;;;;;;;2.83;1.70;;;;;;;;;;4970203;28;20407;-59
2023/07/27 09:54:04;;;;;;;4.15;2.22;;;;;;;;;;4971064;28;20038;-60
2023/07/27 09:56:31;;;;;;;2.95;2.15;;;;;;;;;;4972830;28;20497;-60
2023/07/27 09:58:58;;;;;;;3.72;2.10;;;;;;;;;;4971859;28;20043;-60
2023/07/27 10:01:25;;;;;;;5.60;2.45;;;;;;;;;;4970636;28;20478;-60
2023/07/27 10:03:57;;;;;;;4.78;2.40;;;;;;;;;;4954434;28;20050;-61
2023/07/27 10:06:25;;;;;;;4.63;1.88;;;;;;;;;;4969078;28;20058;-60
2023/07/27 10:08:52;;;;;;;4.78;2.25;;;;;;;;;;4973370;28;20035;-60
2023/07/27 10:11:28;;;;;;;4.53;2.30;;;;;;;;;;4969720;28;20413;-59
2023/07/27 10:13:56;;;;;;;5.93;2.10;;;;;;;;;;4969239;28;20038;-61
2023/07/27 10:16:27;;;;;;;4.35;2.22;;;;;;;;;;4969054;28;20060;-61
2023/07/27 10:18:55;;;;;;;3.33;2.25;;;;;;;;;;4972381;28;20038;-60
2023/07/27 10:21:21;;;;;;;3.38;2.28;;;;;;;;;;4970718;28;20517;-59
2023/07/27 10:24:01;;;;;;;6.55;2.72;;;;;;;;;;4971358;28;20038;-59
2023/07/27 10:26:46;;;;;;;4.15;2.30;;;;;;;;;;4969340;28;20042;-60
2023/07/27 10:29:24;;;;;;;4.00;2.53;;;;;;;;;;4969044;28;20038;-60
2023/07/27 10:32:01;;;;;;;3.33;2.30;;;;;;;;;;4972497;28;20042;-61
2023/07/27 10:34:28;;;;;;;3.47;2.45;;;;;;;;;;4969238;28;20035;-60
2023/07/27 10:37:02;;;;;;;6.45;2.60;;;;;;;;;;4968124;28;20490;-59
2023/07/27 10:39:29;;;;;;;6.25;2.75;;;;;;;;;;4966257;28;20034;-59
2023/07/27 10:42:01;;;;;;;5.00;3.20;;;;;;;;;;4969757;28;20063;-59
2023/07/27 10:44:48;;;;;;;3.85;2.80;;;;;;;;;;4966560;28;20402;-60
2023/07/27 10:47:37;;;;;;;6.80;2.95;;;;;;;;;;4969680;28;20511;-60
2023/07/27 10:50:03;;;;;;;3.97;2.53;;;;;;;;;;4971703;28;20035;-60
2023/07/27 10:52:34;;;;;;;5.00;2.97;;;;;;;;;;4971761;28;20426;-60
2023/07/27 10:55:03;;;;;;;5.43;2.97;;;;;;;;;;4970437;28;20051;-60
2023/07/27 10:57:31;;;;;;;6.25;3.28;;;;;;;;;;4968244;28;20063;-60
2023/07/27 10:59:58;;;;;;;5.70;2.83;;;;;;;;;;4970561;28;20054;-60
2023/07/27 11:02:29;;;;;;;5.75;3.08;;;;;;;;;;4967911;28;20057;-59
2023/07/27 11:04:57;;;;;;;5.72;3.05;;;;;;;;;;4972096;28;20051;-59
2023/07/27 11:07:31;;;;;;;5.15;3.00;;;;;;;;;;4968170;28;20038;-59
2023/07/27 11:09:59;;;;;;;5.07;2.85;;;;;;;;;;4969701;28;20035;-60
2023/07/27 11:12:25;;;;;;;5.30;3.20;;;;;;;;;;4967077;28;20399;-60
2023/07/27 11:14:52;;;;;;;8.25;2.88;;;;;;;;;;4973901;28;20054;-59
2023/07/27 11:17:24;;;;;;;5.07;2.50;;;;;;;;;;4969975;28;20043;-60
2023/07/27 11:19:51;;;;;;;4.47;2.90;;;;;;;;;;4969579;28;20027;-59
2023/07/27 11:22:17;;;;;;;4.75;2.67;;;;;;;;;;4971565;28;20058;-60
2023/07/27 11:24:44;;;;;;;4.78;2.80;;;;;;;;;;4970834;28;20034;-59
2023/07/27 11:27:10;;;;;;;5.88;3.17;;;;;;;;;;4971216;28;20063;-62
2023/07/27 11:29:39;;;;;;;5.95;2.92;;;;;;;;;;4972366;28;20638;-60
2023/07/27 11:32:06;;;;;;;5.57;3.15;;;;;;;;;;4969283;28;20070;-60
2023/07/27 11:34:32;;;;;;;5.20;3.20;;;;;;;;;;4966866;28;20054;-61
2023/07/27 11:36:59;;;;;;;6.35;2.95;;;;;;;;;;4969507;28;20049;-60
2023/07/27 11:39:26;;;;;;;5.55;2.90;;;;;;;;;;4969551;28;20026;-60
2023/07/27 11:41:53;;;;;;;5.32;2.83;;;;;;;;;;4966935;28;20426;-60
2023/07/27 11:44:20;;;;;;;3.95;2.65;;;;;;;;;;4967973;28;20042;-60
2023/07/27 11:46:52;;;;;;;4.00;2.75;;;;;;;;;;4973554;28;20034;-60
2023/07/27 11:49:22;;;;;;;4.00;2.72;;;;;;;;;;4967879;28;20043;-60
2023/07/27 11:51:48;;;;;;;5.18;3.05;;;;;;;;;;4968550;28;20466;-59
2023/07/27 11:54:26;;;;;;;4.55;2.90;;;;;;;;;;4967753;28;20046;-59
2023/07/27 11:56:54;;;;;;;5.53;2.95;;;;;;;;;;4968661;28;20053;-60
2023/07/27 11:59:21;;;;;;;5.27;2.90;;;;;;;;;;4968042;28;20035;-60
2023/07/27 12:01:51;;;;;;;5.68;3.20;;;;;;;;;;4970012;28;20039;-60
2023/07/27 12:04:19;;;;;;;4.88;3.42;;;;;;;;;;4969981;28;20039;-60
2023/07/27 12:06:45;;;;;;;4.35;2.90;;;;;;;;;;4967237;28;20050;-61
2023/07/27 12:09:12;;;;;;;7.40;3.55;;;;;;;;;;4967999;28;20422;-61
2023/07/27 12:11:39;;;;;;;6.53;3.10;;;;;;;;;;4979353;28;20054;-60
2023/07/27 12:14:09;;;;;;;4.15;2.90;;;;;;;;;;4971913;28;20034;-60
2023/07/27 12:16:40;;;;;;;6.18;3.33;;;;;;;;;;4966757;28;20062;-60
2023/07/27 12:19:07;;;;;;;7.60;3.60;;;;;;;;;;4969313;28;20042;-60
2023/07/27 12:21:35;;;;;;;4.72;3.20;;;;;;;;;;4965486;28;20039;-60
2023/07/27 12:24:02;;;;;;;6.82;3.40;;;;;;;;;;4967906;28;20490;-61
2023/07/27 12:26:29;;;;;;;6.75;2.83;;;;;;;;;;4967277;28;20501;-60
2023/07/27 12:28:55;;;;;;;4.75;3.10;;;;;;;;;;4972013;28;20035;-60
2023/07/27 12:31:21;;;;;;;7.13;3.00;;;;;;;;;;4968179;28;20051;-60
2023/07/27 12:33:47;;;;;;;3.83;2.60;;;;;;;;;;4968090;28;20046;-60
2023/07/27 12:36:14;;;;;;;6.43;2.90;;;;;;;;;;4964187;28;20053;-60
2023/07/27 12:38:40;;;;;;;5.78;3.10;;;;;;;;;;4969584;28;20058;-60
2023/07/27 12:41:06;;;;;;;5.82;3.10;;;;;;;;;;4967578;28;20042;-60
2023/07/27 12:43:32;;;;;;;8.68;3.30;;;;;;;;;;4965781;28;20054;-61
2023/07/27 12:45:58;;;;;;;6.35;3.17;;;;;;;;;;4973398;28;20030;-60
2023/07/27 12:48:24;;;;;;;4.32;2.90;;;;;;;;;;4949925;28;20046;-61
2023/07/27 12:50:50;;;;;;;5.78;2.85;;;;;;;;;;4972151;28;20049;-61
2023/07/27 12:53:17;;;;;;;5.30;2.95;;;;;;;;;;4968038;28;20058;-60
2023/07/27 12:55:43;;;;;;;6.93;3.10;;;;;;;;;;4970817;28;20049;-60
2023/07/27 12:58:09;;;;;;;6.15;3.60;;;;;;;;;;4969036;28;20050;-61
2023/07/27 13:00:35;;;;;;;4.43;3.47;;;;;;;;;;4963954;28;20430;-61
2023/07/27 13:03:01;;;;;;;4.50;3.10;;;;;;;;;;4968505;28;20057;-60
2023/07/27 13:05:28;;;;;;;5.32;3.25;;;;;;;;;;4966175;28;20035;-61
2023/07/27 13:07:55;;;;;;;7.03;3.70;;;;;;;;;;4966415;28;20050;-60
2023/07/27 13:10:21;;;;;;;4.47;2.78;;;;;;;;;;4964257;28;20051;-60
2023/07/27 13:12:47;;;;;;;7.18;3.65;;;;;;;;;;4965143;28;20027;-60
2023/07/27 13:15:16;;;;;;;6.45;3.28;;;;;;;;;;4964594;28;20387;-60
2023/07/27 13:17:42;;;;;;;8.15;3.75;;;;;;;;;;4970796;28;20038;-61
2023/07/27 13:20:09;;;;;;;7.65;3.58;;;;;;;;;;4966256;28;20039;-61
2023/07/27 13:22:35;;;;;;;6.90;3.50;;;;;;;;;;4966161;28;20047;-59
2023/07/27 13:25:02;;;;;;;7.03;3.40;;;;;;;;;;4966538;28;20061;-59
2023/07/27 13:27:30;;;;;;;7.15;4.10;;;;;;;;;;4972070;28;20049;-59
2023/07/27 13:29:56;;;;;;;7.35;3.67;;;;;;;;;;4970680;28;20035;-60
2023/07/27 13:32:22;;;;;;;5.85;3.83;;;;;;;;;;4970141;28;20038;-59
2023/07/27 13:34:49;;;;;;;5.35;3.80;;;;;;;;;;4970891;28;20050;-60
2023/07/27 13:37:15;;;;;;;6.72;4.10;;;;;;;;;;4967944;28;20069;-59
2023/07/27 13:39:41;;;;;;;5.43;4.00;;;;;;;;;;4966454;28;20076;-60
2023/07/27 13:42:08;;;;;;;6.38;3.67;;;;;;;;;;4968958;28;20049;-60
2023/07/27 13:44:34;;;;;;;5.68;3.83;;;;;;;;;;4967607;28;20054;-59
2023/07/27 13:47:00;;;;;;;8.05;3.92;;;;;;;;;;4964354;28;20422;-59
2023/07/27 13:49:26;;;;;;;7.28;3.80;;;;;;;;;;4967001;28;20035;-60
2023/07/27 13:51:52;;;;;;;9.18;4.20;;;;;;;;;;4966681;28;20043;-60
2023/07/27 13:54:19;;;;;;;8.43;4.43;;;;;;;;;;4968773;28;20034;-59
2023/07/27 13:56:45;;;;;;;10.02;4.57;;;;;;;;;;4968856;28;20042;-61
2023/07/27 13:59:12;;;;;;;7.90;4.28;;;;;;;;;;4969115;28;20046;-60
2023/07/27 14:01:38;;;;;;;8.18;4.57;;;;;;;;;;4968590;28;20501;-60
2023/07/27 14:04:04;;;;;;;7.20;4.13;;;;;;;;;;4965946;28;20051;-60
2023/07/27 14:06:30;;;;;;;7.20;4.82;;;;;;;;;;4965327;28;20050;-60
2023/07/27 14:08:58;;;;;;;8.02;4.55;;;;;;;;;;4965071;28;20047;-60
2023/07/27 14:11:24;;;;;;;9.70;4.88;;;;;;;;;;4964282;28;20037;-60
2023/07/27 14:13:50;;;;;;;6.85;4.22;;;;;;;;;;4970766;28;20406;-62
2023/07/27 14:16:17;;;;;;;7.68;4.75;;;;;;;;;;4968223;28;20039;-59
2023/07/27 14:18:43;;;;;;;7.25;4.38;;;;;;;;;;4967791;28;20055;-59
2023/07/27 14:21:09;;;;;;;7.07;4.82;;;;;;;;;;4968057;28;20046;-59
2023/07/27 14:23:36;;;;;;;16.73;8.38;;;;;;;;;;4968799;28;20062;-59
2023/07/27 14:26:02;;;;;;;10.52;5.65;;;;;;;;;;4975467;28;20043;-60
2023/07/27 14:28:28;;;;;;;11.60;6.18;;;;;;;;;;4968142;28;20035;-60
2023/07/27 14:30:56;;;;;;;15.40;8.20;;;;;;;;;;4968516;28;20525;-60
2023/07/27 14:33:22;;;;;;;9.50;5.43;;;;;;;;;;4968561;28;20043;-60
2023/07/27 14:35:48;;;;;;;7.18;4.32;;;;;;;;;;4966790;28;20046;-60
2023/07/27 14:38:38;;;;;;;8.65;4.40;;;;;;;;;;4970687;28;20049;-60
2023/07/27 14:41:04;;;;;;;8.70;4.97;;;;;;;;;;4969376;28;20051;-60
2023/07/27 14:43:30;;;;;;;8.65;4.85;;;;;;;;;;4968705;28;20462;-60
2023/07/27 14:45:56;;;;;;;8.50;5.07;;;;;;;;;;4978552;28;20060;-60